Time;durP1;ratioP1;P1;durP2;ratioP2;P2;SDS_P1;SDS_P2;PMS_P1;PMS_P2;Temp;Humidity;BMP_temperature;BMP_pressure;BME280_temperature;BME280_humidity;BME280_pressure;Samples;Min_cycle;Max_cycle;Signal;HPM_P1;HPM_P2
2021/04/07 00:07:12;;;;;;;16.5;8.9;;;;;;;-3.57;100;97518.05;;;;
2021/04/07 00:17:09;;;;;;;15;8.8;;;;;;;-3.7;100;97528.92;;;;
2021/04/07 00:27:09;;;;;;;15.8;9.4;;;;;;;-3.81;100;97515.85;;;;
2021/04/07 00:37:03;;;;;;;16.1;11.5;;;;;;;-3.76;100;97521.2;;;;
2021/04/07 00:47:00;;;;;;;19.2;11.3;;;;;;;-3.73;100;97531.25;;;;
2021/04/07 00:56:57;;;;;;;15.4;9.2;;;;;;;-3.82;100;97535.34;;;;
2021/04/07 01:06:54;;;;;;;13.4;9.8;;;;;;;-3.92;100;97535.19;;;;
2021/04/07 01:16:51;;;;;;;13.3;9.3;;;;;;;-4.06;100;97543.38;;;;
2021/04/07 01:26:48;;;;;;;19.2;9.8;;;;;;;-4.16;100;97560.84;;;;
2021/04/07 01:36:45;;;;;;;14.7;7.8;;;;;;;-4.25;100;97557.02;;;;
2021/04/07 01:46:44;;;;;;;10.8;7.9;;;;;;;-4.27;100;97567.77;;;;
2021/04/07 01:56:39;;;;;;;12;6.9;;;;;;;-3.95;100;97569.85;;;;
2021/04/07 02:06:36;;;;;;;12.6;7.4;;;;;;;-3.56;100;97574.94;;;;
2021/04/07 02:16:33;;;;;;;9.9;6.1;;;;;;;-3.2;100;97578.06;;;;
2021/04/07 02:26:30;;;;;;;9.4;6.5;;;;;;;-3.01;100;97578.54;;;;
2021/04/07 02:36:27;;;;;;;14.5;7.9;;;;;;;-2.99;100;97571.2;;;;
2021/04/07 02:46:25;;;;;;;12.1;7.3;;;;;;;-3.21;100;97579.89;;;;
2021/04/07 02:56:22;;;;;;;12.8;5.8;;;;;;;-3.23;100;97584.59;;;;
2021/04/07 03:06:21;;;;;;;11.2;6.6;;;;;;;-3.26;100;97594.82;;;;
2021/04/07 03:16:16;;;;;;;14.5;5.6;;;;;;;-3.23;100;97610.94;;;;
2021/04/07 03:26:13;;;;;;;16.5;7.2;;;;;;;-3.08;100;97600.61;;;;
2021/04/07 03:36:11;;;;;;;11.3;6.4;;;;;;;-3.07;100;97607.48;;;;
2021/04/07 03:46:08;;;;;;;8.8;5.3;;;;;;;-3.19;100;97612.05;;;;
2021/04/07 03:56:05;;;;;;;9;6.4;;;;;;;-3.4;100;97628.61;;;;
2021/04/07 04:06:02;;;;;;;10;6.4;;;;;;;-3.48;100;97638.77;;;;
2021/04/07 04:15:59;;;;;;;13.8;8.6;;;;;;;-3.5;100;97649.53;;;;
2021/04/07 04:25:56;;;;;;;8.8;7.3;;;;;;;-3.5;100;97649.53;;;;
2021/04/07 04:35:57;;;;;;;12.8;8.7;;;;;;;-3.37;100;97659.77;;;;
2021/04/07 04:45:50;;;;;;;13.6;8.5;;;;;;;-3.07;100;97677.84;;;;
2021/04/07 04:55:47;;;;;;;16.4;10.9;;;;;;;-2.45;100;97678.38;;;;
2021/04/07 05:05:45;;;;;;;12.6;11.1;;;;;;;-1.95;100;97691.33;;;;
2021/04/07 05:15:42;;;;;;;13.7;9.7;;;;;;;-1.61;100;97697.98;;;;
2021/04/07 05:25:39;;;;;;;18.5;11.3;;;;;;;-1.19;100;97708.63;;;;
2021/04/07 05:35:37;;;;;;;13.6;10.2;;;;;;;-0.83;100;97706.23;;;;
2021/04/07 05:45:34;;;;;;;17.4;12.2;;;;;;;-0.52;100;97719.34;;;;
2021/04/07 05:55:32;;;;;;;16.8;14.2;;;;;;;-0.16;100;97724.8;;;;
2021/04/07 06:05:29;;;;;;;18.6;13.7;;;;;;;-0.08;100;97730.4;;;;
2021/04/07 06:15:27;;;;;;;24.9;15.5;;;;;;;-0.21;100;97733.5;;;;
2021/04/07 06:25:24;;;;;;;19.6;14.3;;;;;;;0.31;100;97738.69;;;;
2021/04/07 06:35:22;;;;;;;18.1;13.8;;;;;;;1.05;100;97746.17;;;;
2021/04/07 06:45:22;;;;;;;21;12.6;;;;;;;0.7;100;97768.19;;;;
2021/04/07 06:55:17;;;;;;;15.8;14;;;;;;;1.2;100;97774.56;;;;
2021/04/07 07:05:14;;;;;;;24.7;13.5;;;;;;;2.07;100;97791.89;;;;
2021/04/07 07:15:12;;;;;;;18;12.2;;;;;;;2.01;95.25;97793.78;;;;
2021/04/07 07:25:10;;;;;;;19.1;14.2;;;;;;;1.84;95.89258;97809.25;;;;
2021/04/07 07:35:08;;;;;;;16.5;13.6;;;;;;;1.26;100;97821.27;;;;
2021/04/07 07:45:06;;;;;;;22.8;18.4;;;;;;;1.94;100;97823.27;;;;
2021/04/07 07:55:03;;;;;;;18.1;14;;;;;;;2.19;99.62012;97832.22;;;;
2021/04/07 08:05:01;;;;;;;14.4;12.7;;;;;;;2.19;100;97851.63;;;;
2021/04/07 08:14:59;;;;;;;15;12.2;;;;;;;2.19;99.60938;97837.54;;;;
2021/04/07 08:24:57;;;;;;;16.3;12.1;;;;;;;2.83;95.70801;97846.29;;;;
2021/04/07 08:34:55;;;;;;;16.5;14;;;;;;;2.85;92.7793;97851.32;;;;
2021/04/07 08:44:53;;;;;;;14.3;8.4;;;;;;;3.15;87.58594;97848.48;;;;
2021/04/07 08:54:51;;;;;;;11.2;9.8;;;;;;;3.11;83.99414;97843.98;;;;
2021/04/07 09:04:48;;;;;;;12.2;9.6;;;;;;;3.43;83.72656;97838.94;;;;
2021/04/07 09:14:46;;;;;;;10;8.9;;;;;;;3.47;82.35938;97858.63;;;;
2021/04/07 09:24:44;;;;;;;11.6;9.5;;;;;;;3.8;81.59082;97859.65;;;;
2021/04/07 09:34:42;;;;;;;16.8;8.8;;;;;;;4.03;82.22461;97843.67;;;;
2021/04/07 09:44:40;;;;;;;11.8;8.8;;;;;;;4.78;78.70605;97835.04;;;;
2021/04/07 09:54:40;;;;;;;15.3;9.8;;;;;;;4.79;74.5459;97856.09;;;;
2021/04/07 10:04:37;;;;;;;11.3;7.2;;;;;;;2.56;88.96875;97869.85;;;;
2021/04/07 10:14:35;;;;;;;8.7;4.8;;;;;;;1.77;95.61426;97873.25;;;;
2021/04/07 10:24:33;;;;;;;6.6;3.4;;;;;;;2.27;91.87207;97847.63;;;;
2021/04/07 10:34:31;;;;;;;9.9;4.5;;;;;;;3.46;82.34863;97852.5;;;;
2021/04/07 10:44:29;;;;;;;9.5;6.1;;;;;;;4.55;75.4502;97847.33;;;;
2021/04/07 10:54:27;;;;;;;13.5;10.5;;;;;;;4.7;75.90039;97859.7;;;;
2021/04/07 11:04:27;;;;;;;10;7.1;;;;;;;4.25;77.33398;97866.38;;;;
2021/04/07 11:14:23;;;;;;;13.2;8.7;;;;;;;4.79;75.99414;97869.44;;;;
2021/04/07 11:24:22;;;;;;;13.8;7.7;;;;;;;3.65;84.4541;97900.55;;;;
2021/04/07 11:34:26;;;;;;;10.1;8.2;;;;;;;3.31;93.07617;97919.19;;;;
2021/04/07 11:44:28;;;;;;;5.1;3.7;;;;;;;1.45;100;97920.56;;;;
2021/04/07 11:54:15;;;;;;;12.4;8.3;;;;;;;1.38;100;97925.33;;;;
2021/04/07 12:04:13;;;;;;;8.7;6.6;;;;;;;1.33;100;97933.27;;;;
2021/04/07 12:14:11;;;;;;;9.6;6;;;;;;;1.16;100;97920.25;;;;
2021/04/07 12:24:08;;;;;;;10.7;6.9;;;;;;;1.52;100;97929.06;;;;
2021/04/07 12:34:06;;;;;;;8.9;6.5;;;;;;;2.12;100;97925.55;;;;
2021/04/07 12:44:04;;;;;;;8.8;4.8;;;;;;;3.31;97.73145;97908.53;;;;
2021/04/07 12:54:02;;;;;;;8.8;5.9;;;;;;;3.23;91.09375;97900.35;;;;
2021/04/07 13:04:00;;;;;;;7.6;5.1;;;;;;;2.89;94.23145;97916.23;;;;
2021/04/07 13:13:58;;;;;;;6.2;3.5;;;;;;;2.53;91.5;97958.94;;;;
2021/04/07 13:23:56;;;;;;;5.3;3.5;;;;;;;2.74;92.58887;97950.91;;;;
2021/04/07 13:33:55;;;;;;;6.8;4.2;;;;;;;3.45;88.42383;97952.12;;;;
2021/04/07 13:43:51;;;;;;;11.3;4.1;;;;;;;4.58;79.93945;97946.29;;;;
2021/04/07 13:53:50;;;;;;;8.1;4.1;;;;;;;4.06;74.12012;97941.76;;;;
2021/04/07 14:03:47;;;;;;;6.3;3.1;;;;;;;4.06;72.10547;97951.66;;;;
2021/04/07 14:13:45;;;;;;;8.3;4.2;;;;;;;4.08;71.5752;97973.48;;;;
2021/04/07 14:23:43;;;;;;;11.7;5.6;;;;;;;3.83;74.18066;97982.48;;;;
2021/04/07 14:33:41;;;;;;;8.6;4.6;;;;;;;3.81;78.08594;97984.64;;;;
2021/04/07 14:43:39;;;;;;;15;6.4;;;;;;;3.69;79.88477;97989.52;;;;
2021/04/07 14:53:41;;;;;;;14.1;9.8;;;;;;;3.07;87.50293;97992.8;;;;
2021/04/07 15:03:35;;;;;;;15.5;8.4;;;;;;;2.88;95.47754;98003.25;;;;
2021/04/07 15:13:33;;;;;;;18.2;8.2;;;;;;;2.42;99.67578;98013.24;;;;
2021/04/07 15:23:31;;;;;;;9.6;6.8;;;;;;;2.63;97.74316;98016.66;;;;
2021/04/07 15:33:29;;;;;;;12.9;9.9;;;;;;;2.84;97.42871;98010.21;;;;
2021/04/07 15:43:27;;;;;;;12.3;9.2;;;;;;;2.91;94.96484;98015.24;;;;
2021/04/07 15:53:28;;;;;;;14.6;9.1;;;;;;;3.24;95.75293;98035.06;;;;
2021/04/07 16:03:23;;;;;;;17.5;13.7;;;;;;;3.27;93.45508;98032.64;;;;
2021/04/07 16:13:23;;;;;;;13.6;9.7;;;;;;;3.12;89.93359;98027.41;;;;
2021/04/07 16:23:19;;;;;;;14.9;8.8;;;;;;;3.07;88.59668;98037.26;;;;
2021/04/07 16:33:17;;;;;;;13;7.3;;;;;;;2.67;88.26074;98032.88;;;;
2021/04/07 16:43:15;;;;;;;12.7;9.2;;;;;;;2.42;89.10254;98039.03;;;;
2021/04/07 16:53:12;;;;;;;11;7.4;;;;;;;2.18;90.21191;98041.45;;;;
2021/04/07 17:03:10;;;;;;;17;8.4;;;;;;;1.99;90.83301;98057.11;;;;
2021/04/07 17:13:09;;;;;;;17.4;10.1;;;;;;;1.8;91.39746;98063.22;;;;
2021/04/07 17:23:06;;;;;;;13.1;8.1;;;;;;;1.88;89.52051;98086.59;;;;
2021/04/07 17:33:04;;;;;;;14.5;10.4;;;;;;;1.9;89.625;98101.22;;;;
2021/04/07 17:43:02;;;;;;;12.7;8.6;;;;;;;1.73;97.00195;98142.36;;;;
2021/04/07 17:52:59;;;;;;;13.2;8.5;;;;;;;1.15;100;98146.88;;;;
2021/04/07 18:02:58;;;;;;;16.8;10.5;;;;;;;0.91;100;98143.81;;;;
2021/04/07 18:12:55;;;;;;;16.9;12.4;;;;;;;0.91;100;98183.61;;;;
2021/04/07 18:22:52;;;;;;;19.6;10.3;;;;;;;0.82;100;98222.28;;;;
2021/04/07 18:32:50;;;;;;;18.9;11.5;;;;;;;0.55;100;98199.52;;;;
2021/04/07 18:42:47;;;;;;;19.5;13;;;;;;;0.35;100;98202.77;;;;
2021/04/07 18:52:45;;;;;;;25.3;14.5;;;;;;;0.37;100;98212.08;;;;
2021/04/07 19:02:43;;;;;;;19.8;14.2;;;;;;;0.44;100;98256.94;;;;
2021/04/07 19:12:40;;;;;;;13.2;9.9;;;;;;;0.39;100;98270.13;;;;
2021/04/07 19:22:38;;;;;;;12.6;9.1;;;;;;;0.23;100;98273.67;;;;
2021/04/07 19:32:35;;;;;;;24.6;13.1;;;;;;;0.25;100;98295.41;;;;
2021/04/07 19:42:33;;;;;;;19.7;13.3;;;;;;;0.25;100;98284.81;;;;
2021/04/07 19:52:31;;;;;;;15.4;11.5;;;;;;;0.04;100;98283.78;;;;
2021/04/07 20:02:28;;;;;;;27.4;17.1;;;;;;;-0.05;100;98291.38;;;;
2021/04/07 20:12:26;;;;;;;15.4;10.8;;;;;;;-0.12;100;98288.11;;;;
2021/04/07 20:22:23;;;;;;;13;9.2;;;;;;;-0.22;100;98300.41;;;;
2021/04/07 20:32:23;;;;;;;12;8.7;;;;;;;-0.5;100;98280.18;;;;
2021/04/07 20:42:18;;;;;;;10.1;5.3;;;;;;;-0.56;100;98294.39;;;;
2021/04/07 20:52:16;;;;;;;13.6;5.7;;;;;;;-0.71;100;98296.8;;;;
2021/04/07 21:02:13;;;;;;;7.5;5;;;;;;;-0.81;100;98294.01;;;;
2021/04/07 21:12:11;;;;;;;10.9;7.3;;;;;;;-0.81;100;98294.01;;;;
2021/04/07 21:22:08;;;;;;;10.6;7.7;;;;;;;-0.99;100;98300.34;;;;
2021/04/07 21:32:06;;;;;;;7.7;5.4;;;;;;;-1.15;100;98303.78;;;;
2021/04/07 21:42:03;;;;;;;11.8;6.7;;;;;;;-1.18;100;98312.2;;;;
2021/04/07 21:52:01;;;;;;;7.9;5.9;;;;;;;-1.13;100;98310.43;;;;
2021/04/07 22:01:58;;;;;;;10.2;5.6;;;;;;;-1.11;100;98310.98;;;;
2021/04/07 22:11:56;;;;;;;9.9;6.2;;;;;;;-1.1;100;98306.49;;;;
2021/04/07 22:21:53;;;;;;;10.2;5.9;;;;;;;-1.11;100;98304.91;;;;
2021/04/07 22:31:50;;;;;;;12.1;7.5;;;;;;;-1.1;100;98298.56;;;;
2021/04/07 22:41:48;;;;;;;7.8;5.9;;;;;;;-1.21;100;98299.42;;;;
2021/04/07 22:51:45;;;;;;;12.1;7.4;;;;;;;-1.31;100;98302.7;;;;
2021/04/07 23:01:43;;;;;;;10.8;6.9;;;;;;;-1.4;100;98308.63;;;;
2021/04/07 23:11:40;;;;;;;18.5;8.8;;;;;;;-1.47;100;98303.48;;;;
2021/04/07 23:21:38;;;;;;;13.2;8.7;;;;;;;-1.64;100;98305.28;;;;
2021/04/07 23:31:36;;;;;;;10.2;6.2;;;;;;;-1.74;100;98299.81;;;;
2021/04/07 23:41:32;;;;;;;11.1;6.4;;;;;;;-1.81;100;98296.5;;;;
2021/04/07 23:51:30;;;;;;;10.3;6.8;;;;;;;-1.84;100;98294.34;;;;
